sensor_id;sensor_type;location;lat;lon;timestamp;temperature;humidity
2657;DHT22;1338;48.176;11.792;2023-05-02T00:02:14;8.80;99.90
2657;DHT22;1338;48.176;11.792;2023-05-02T00:04:43;8.80;99.90
2657;DHT22;1338;48.176;11.792;2023-05-02T00:07:11;8.90;99.90
2657;DHT22;1338;48.176;11.792;2023-05-02T00:09:40;8.80;99.90
2657;DHT22;1338;48.176;11.792;2023-05-02T00:12:08;8.80;1.00
2657;DHT22;1338;48.176;11.792;2023-05-02T00:14:37;8.80;1.00
2657;DHT22;1338;48.176;11.792;2023-05-02T00:17:05;8.80;1.00
2657;DHT22;1338;48.176;11.792;2023-05-02T00:19:37;8.80;1.00
2657;DHT22;1338;48.176;11.792;2023-05-02T00:22:07;8.70;1.00
2657;DHT22;1338;48.176;11.792;2023-05-02T00:24:35;8.70;1.00
2657;DHT22;1338;48.176;11.792;2023-05-02T00:27:04;8.70;1.00
2657;DHT22;1338;48.176;11.792;2023-05-02T00:29:33;8.70;1.00
2657;DHT22;1338;48.176;11.792;2023-05-02T00:32:01;8.70;1.00
2657;DHT22;1338;48.176;11.792;2023-05-02T00:34:29;8.70;1.00
2657;DHT22;1338;48.176;11.792;2023-05-02T00:36:57;8.60;1.00
2657;DHT22;1338;48.176;11.792;2023-05-02T00:39:26;8.60;1.00
2657;DHT22;1338;48.176;11.792;2023-05-02T00:41:57;8.60;1.00
2657;DHT22;1338;48.176;11.792;2023-05-02T00:44:27;8.60;1.00
2657;DHT22;1338;48.176;11.792;2023-05-02T00:46:55;8.60;99.90
2657;DHT22;1338;48.176;11.792;2023-05-02T00:49:24;8.60;99.90
2657;DHT22;1338;48.176;11.792;2023-05-02T00:51:52;8.60;99.90
2657;DHT22;1338;48.176;11.792;2023-05-02T00:54:20;8.60;99.90
2657;DHT22;1338;48.176;11.792;2023-05-02T00:56:49;8.50;99.90
2657;DHT22;1338;48.176;11.792;2023-05-02T00:59:17;8.50;99.90
2657;DHT22;1338;48.176;11.792;2023-05-02T01:01:53;8.40;99.90
2657;DHT22;1338;48.176;11.792;2023-05-02T01:04:35;8.50;99.90
2657;DHT22;1338;48.176;11.792;2023-05-02T01:07:16;8.40;99.90
2657;DHT22;1338;48.176;11.792;2023-05-02T01:09:55;8.40;99.90
2657;DHT22;1338;48.176;11.792;2023-05-02T01:12:30;8.30;99.90
2657;DHT22;1338;48.176;11.792;2023-05-02T01:15:01;8.30;99.90
2657;DHT22;1338;48.176;11.792;2023-05-02T01:17:35;8.30;99.90
2657;DHT22;1338;48.176;11.792;2023-05-02T01:20:07;8.30;99.90
2657;DHT22;1338;48.176;11.792;2023-05-02T01:22:37;8.30;99.90
2657;DHT22;1338;48.176;11.792;2023-05-02T01:25:16;8.30;99.90
2657;DHT22;1338;48.176;11.792;2023-05-02T01:27:53;8.30;99.90
2657;DHT22;1338;48.176;11.792;2023-05-02T01:30:27;8.20;99.90
2657;DHT22;1338;48.176;11.792;2023-05-02T01:32:57;8.20;99.90
2657;DHT22;1338;48.176;11.792;2023-05-02T01:35:26;8.10;99.90
2657;DHT22;1338;48.176;11.792;2023-05-02T01:37:56;8.10;99.90
2657;DHT22;1338;48.176;11.792;2023-05-02T01:40:26;8.00;99.90
2657;DHT22;1338;48.176;11.792;2023-05-02T01:42:54;8.00;99.90
2657;DHT22;1338;48.176;11.792;2023-05-02T01:45:26;8.00;99.90
2657;DHT22;1338;48.176;11.792;2023-05-02T01:47:55;8.00;99.90
2657;DHT22;1338;48.176;11.792;2023-05-02T01:50:25;7.90;99.90
2657;DHT22;1338;48.176;11.792;2023-05-02T01:52:57;7.90;99.90
2657;DHT22;1338;48.176;11.792;2023-05-02T01:55:27;7.80;99.90
2657;DHT22;1338;48.176;11.792;2023-05-02T01:57:56;7.80;1.00
2657;DHT22;1338;48.176;11.792;2023-05-02T02:00:26;7.80;99.90
2657;DHT22;1338;48.176;11.792;2023-05-02T02:02:57;7.80;99.90
2657;DHT22;1338;48.176;11.792;2023-05-02T02:05:27;7.70;99.90
2657;DHT22;1338;48.176;11.792;2023-05-02T02:07:55;7.70;99.90
2657;DHT22;1338;48.176;11.792;2023-05-02T02:10:25;7.70;1.00
2657;DHT22;1338;48.176;11.792;2023-05-02T02:13:00;7.70;1.00
2657;DHT22;1338;48.176;11.792;2023-05-02T02:15:34;7.70;1.00
2657;DHT22;1338;48.176;11.792;2023-05-02T02:18:09;7.60;1.00
2657;DHT22;1338;48.176;11.792;2023-05-02T02:20:38;7.60;1.00
2657;DHT22;1338;48.176;11.792;2023-05-02T02:23:10;7.60;1.00
2657;DHT22;1338;48.176;11.792;2023-05-02T02:25:39;7.50;1.00
2657;DHT22;1338;48.176;11.792;2023-05-02T02:28:08;7.50;1.00
2657;DHT22;1338;48.176;11.792;2023-05-02T02:30:37;7.50;1.00
2657;DHT22;1338;48.176;11.792;2023-05-02T02:33:05;7.40;1.00
2657;DHT22;1338;48.176;11.792;2023-05-02T02:35:37;7.40;1.00
2657;DHT22;1338;48.176;11.792;2023-05-02T02:38:13;7.40;1.00
2657;DHT22;1338;48.176;11.792;2023-05-02T02:40:52;7.30;1.00
2657;DHT22;1338;48.176;11.792;2023-05-02T02:43:29;7.30;1.00
2657;DHT22;1338;48.176;11.792;2023-05-02T02:46:15;7.20;1.00
2657;DHT22;1338;48.176;11.792;2023-05-02T02:48:54;7.20;1.00
2657;DHT22;1338;48.176;11.792;2023-05-02T02:51:27;7.10;1.00
2657;DHT22;1338;48.176;11.792;2023-05-02T02:54:00;7.20;36.60
2657;DHT22;1338;48.176;11.792;2023-05-02T02:57:05;7.20;69.70
2657;DHT22;1338;48.176;11.792;2023-05-02T02:59:37;7.20;99.90
2657;DHT22;1338;48.176;11.792;2023-05-02T03:02:11;7.10;99.90
2657;DHT22;1338;48.176;11.792;2023-05-02T03:04:42;7.20;99.90
2657;DHT22;1338;48.176;11.792;2023-05-02T03:07:11;7.20;99.90
2657;DHT22;1338;48.176;11.792;2023-05-02T03:09:40;7.20;99.90
2657;DHT22;1338;48.176;11.792;2023-05-02T03:12:11;7.20;99.90
2657;DHT22;1338;48.176;11.792;2023-05-02T03:14:40;7.20;99.90
2657;DHT22;1338;48.176;11.792;2023-05-02T03:17:11;7.20;99.90
2657;DHT22;1338;48.176;11.792;2023-05-02T03:19:40;7.10;99.90
2657;DHT22;1338;48.176;11.792;2023-05-02T03:22:09;7.10;99.90
2657;DHT22;1338;48.176;11.792;2023-05-02T03:24:37;7.10;99.90
2657;DHT22;1338;48.176;11.792;2023-05-02T03:27:05;7.10;99.90
2657;DHT22;1338;48.176;11.792;2023-05-02T03:29:39;7.10;99.90
2657;DHT22;1338;48.176;11.792;2023-05-02T03:32:08;7.10;99.90
2657;DHT22;1338;48.176;11.792;2023-05-02T03:34:40;7.10;99.90
2657;DHT22;1338;48.176;11.792;2023-05-02T03:37:09;7.10;99.90
2657;DHT22;1338;48.176;11.792;2023-05-02T03:39:37;7.00;99.90
2657;DHT22;1338;48.176;11.792;2023-05-02T03:42:05;7.00;99.90
2657;DHT22;1338;48.176;11.792;2023-05-02T03:44:33;6.90;99.90
2657;DHT22;1338;48.176;11.792;2023-05-02T03:47:01;6.70;48.00
2657;DHT22;1338;48.176;11.792;2023-05-02T03:49:35;6.60;90.80
2657;DHT22;1338;48.176;11.792;2023-05-02T03:52:06;6.50;16.30
2657;DHT22;1338;48.176;11.792;2023-05-02T03:54:35;6.50;31.00
2657;DHT22;1338;48.176;11.792;2023-05-02T03:57:04;6.30;1.00
2657;DHT22;1338;48.176;11.792;2023-05-02T03:59:33;6.30;1.00
2657;DHT22;1338;48.176;11.792;2023-05-02T04:02:10;6.40;97.00
2657;DHT22;1338;48.176;11.792;2023-05-02T04:04:42;6.40;95.20
2657;DHT22;1338;48.176;11.792;2023-05-02T04:07:15;6.30;24.40
2657;DHT22;1338;48.176;11.792;2023-05-02T04:09:49;6.30;91.20
2657;DHT22;1338;48.176;11.792;2023-05-02T04:12:17;6.40;99.90
2657;DHT22;1338;48.176;11.792;2023-05-02T04:14:48;6.40;99.90
2657;DHT22;1338;48.176;11.792;2023-05-02T04:17:16;6.40;99.90
2657;DHT22;1338;48.176;11.792;2023-05-02T04:19:47;6.50;99.90
2657;DHT22;1338;48.176;11.792;2023-05-02T04:22:18;6.60;99.90
2657;DHT22;1338;48.176;11.792;2023-05-02T04:24:51;6.60;99.90
2657;DHT22;1338;48.176;11.792;2023-05-02T04:27:21;6.70;99.90
2657;DHT22;1338;48.176;11.792;2023-05-02T04:29:50;6.70;99.90
2657;DHT22;1338;48.176;11.792;2023-05-02T04:32:19;6.80;99.90
2657;DHT22;1338;48.176;11.792;2023-05-02T04:34:48;6.80;99.90
2657;DHT22;1338;48.176;11.792;2023-05-02T04:37:18;6.80;99.90
2657;DHT22;1338;48.176;11.792;2023-05-02T04:39:48;6.80;99.90
2657;DHT22;1338;48.176;11.792;2023-05-02T04:42:19;6.70;99.90
2657;DHT22;1338;48.176;11.792;2023-05-02T04:45:10;6.70;99.90
2657;DHT22;1338;48.176;11.792;2023-05-02T04:47:38;7.90;1.00
2657;DHT22;1338;48.176;11.792;2023-05-02T04:50:08;8.40;1.00
2657;DHT22;1338;48.176;11.792;2023-05-02T04:52:38;9.20;1.00
2657;DHT22;1338;48.176;11.792;2023-05-02T04:55:07;8.10;99.90
2657;DHT22;1338;48.176;11.792;2023-05-02T04:57:36;8.30;99.90
2657;DHT22;1338;48.176;11.792;2023-05-02T05:00:07;9.40;99.90
2657;DHT22;1338;48.176;11.792;2023-05-02T05:02:36;8.80;1.00
2657;DHT22;1338;48.176;11.792;2023-05-02T05:05:05;9.10;1.00
2657;DHT22;1338;48.176;11.792;2023-05-02T05:07:33;8.20;1.00
2657;DHT22;1338;48.176;11.792;2023-05-02T05:10:03;8.70;32.50
2657;DHT22;1338;48.176;11.792;2023-05-02T05:12:39;8.40;1.00
2657;DHT22;1338;48.176;11.792;2023-05-02T05:15:09;8.20;8.40
2657;DHT22;1338;48.176;11.792;2023-05-02T05:17:42;8.40;99.90
2657;DHT22;1338;48.176;11.792;2023-05-02T05:20:11;8.40;99.90
2657;DHT22;1338;48.176;11.792;2023-05-02T05:22:40;8.40;1.00
2657;DHT22;1338;48.176;11.792;2023-05-02T05:25:12;8.10;1.00
2657;DHT22;1338;48.176;11.792;2023-05-02T05:27:42;8.10;25.30
2657;DHT22;1338;48.176;11.792;2023-05-02T05:30:11;8.10;82.40
2657;DHT22;1338;48.176;11.792;2023-05-02T05:32:41;8.20;92.60
2657;DHT22;1338;48.176;11.792;2023-05-02T05:35:10;8.20;1.00
2657;DHT22;1338;48.176;11.792;2023-05-02T05:37:39;8.30;1.00
2657;DHT22;1338;48.176;11.792;2023-05-02T05:40:12;8.30;1.00
2657;DHT22;1338;48.176;11.792;2023-05-02T05:42:43;8.30;1.00
2657;DHT22;1338;48.176;11.792;2023-05-02T05:45:17;8.40;1.00
2657;DHT22;1338;48.176;11.792;2023-05-02T05:47:46;8.50;1.00
2657;DHT22;1338;48.176;11.792;2023-05-02T05:50:14;8.50;1.00
2657;DHT22;1338;48.176;11.792;2023-05-02T05:52:44;8.50;1.00
2657;DHT22;1338;48.176;11.792;2023-05-02T05:55:14;8.60;1.00
2657;DHT22;1338;48.176;11.792;2023-05-02T05:57:42;8.60;1.00
2657;DHT22;1338;48.176;11.792;2023-05-02T06:00:11;8.70;1.00
2657;DHT22;1338;48.176;11.792;2023-05-02T06:02:48;8.80;1.00
2657;DHT22;1338;48.176;11.792;2023-05-02T06:05:29;8.90;1.00
2657;DHT22;1338;48.176;11.792;2023-05-02T06:07:57;9.10;1.00
2657;DHT22;1338;48.176;11.792;2023-05-02T06:10:27;9.10;1.00
2657;DHT22;1338;48.176;11.792;2023-05-02T06:12:56;9.00;1.00
2657;DHT22;1338;48.176;11.792;2023-05-02T06:15:30;9.00;1.00
2657;DHT22;1338;48.176;11.792;2023-05-02T06:18:00;9.10;1.00
2657;DHT22;1338;48.176;11.792;2023-05-02T06:20:29;9.20;1.00
2657;DHT22;1338;48.176;11.792;2023-05-02T06:22:58;9.20;99.90
2657;DHT22;1338;48.176;11.792;2023-05-02T06:25:30;9.30;99.90
2657;DHT22;1338;48.176;11.792;2023-05-02T06:28:00;9.40;99.90
2657;DHT22;1338;48.176;11.792;2023-05-02T06:30:28;9.40;99.90
2657;DHT22;1338;48.176;11.792;2023-05-02T06:32:56;9.60;99.90
2657;DHT22;1338;48.176;11.792;2023-05-02T06:35:25;9.50;99.90
2657;DHT22;1338;48.176;11.792;2023-05-02T06:37:53;9.60;99.90
2657;DHT22;1338;48.176;11.792;2023-05-02T06:40:21;9.80;99.90
2657;DHT22;1338;48.176;11.792;2023-05-02T06:42:50;9.70;99.90
2657;DHT22;1338;48.176;11.792;2023-05-02T06:45:18;9.90;99.90
2657;DHT22;1338;48.176;11.792;2023-05-02T06:47:47;9.80;99.90
2657;DHT22;1338;48.176;11.792;2023-05-02T06:50:15;10.10;99.90
2657;DHT22;1338;48.176;11.792;2023-05-02T06:52:43;10.00;99.90
2657;DHT22;1338;48.176;11.792;2023-05-02T06:55:11;10.20;99.90
2657;DHT22;1338;48.176;11.792;2023-05-02T06:57:39;10.10;99.90
2657;DHT22;1338;48.176;11.792;2023-05-02T07:00:10;10.20;99.90
2657;DHT22;1338;48.176;11.792;2023-05-02T07:02:39;10.30;99.90
2657;DHT22;1338;48.176;11.792;2023-05-02T07:05:08;10.00;30.60
2657;DHT22;1338;48.176;11.792;2023-05-02T07:07:36;10.20;99.90
2657;DHT22;1338;48.176;11.792;2023-05-02T07:10:05;10.50;99.90
2657;DHT22;1338;48.176;11.792;2023-05-02T07:12:33;10.50;99.90
2657;DHT22;1338;48.176;11.792;2023-05-02T07:15:03;10.30;44.50
2657;DHT22;1338;48.176;11.792;2023-05-02T07:17:33;10.30;71.80
2657;DHT22;1338;48.176;11.792;2023-05-02T07:20:01;10.40;82.70
2657;DHT22;1338;48.176;11.792;2023-05-02T07:22:32;10.50;99.90
2657;DHT22;1338;48.176;11.792;2023-05-02T07:25:03;10.60;1.00
2657;DHT22;1338;48.176;11.792;2023-05-02T07:27:31;10.50;1.00
2657;DHT22;1338;48.176;11.792;2023-05-02T07:29:59;10.50;1.00
2657;DHT22;1338;48.176;11.792;2023-05-02T07:32:29;10.60;1.00
2657;DHT22;1338;48.176;11.792;2023-05-02T07:34:59;10.60;1.00
2657;DHT22;1338;48.176;11.792;2023-05-02T07:37:31;10.70;1.00
2657;DHT22;1338;48.176;11.792;2023-05-02T07:40:00;10.80;1.00
2657;DHT22;1338;48.176;11.792;2023-05-02T07:42:29;11.00;1.00
2657;DHT22;1338;48.176;11.792;2023-05-02T07:44:58;10.80;1.00
2657;DHT22;1338;48.176;11.792;2023-05-02T07:47:26;10.90;1.00
2657;DHT22;1338;48.176;11.792;2023-05-02T07:49:55;10.90;1.00
2657;DHT22;1338;48.176;11.792;2023-05-02T07:52:25;11.10;1.00
2657;DHT22;1338;48.176;11.792;2023-05-02T07:54:53;11.10;1.00
2657;DHT22;1338;48.176;11.792;2023-05-02T07:57:21;11.20;1.00
2657;DHT22;1338;48.176;11.792;2023-05-02T07:59:50;11.20;1.00
2657;DHT22;1338;48.176;11.792;2023-05-02T08:02:18;11.10;1.00
2657;DHT22;1338;48.176;11.792;2023-05-02T08:04:49;11.30;1.00
2657;DHT22;1338;48.176;11.792;2023-05-02T08:07:17;11.30;1.00
2657;DHT22;1338;48.176;11.792;2023-05-02T08:09:46;11.10;1.00
2657;DHT22;1338;48.176;11.792;2023-05-02T08:12:15;11.50;1.00
2657;DHT22;1338;48.176;11.792;2023-05-02T08:14:43;11.40;1.00
2657;DHT22;1338;48.176;11.792;2023-05-02T08:17:11;11.50;1.00
2657;DHT22;1338;48.176;11.792;2023-05-02T08:19:39;11.30;1.00
2657;DHT22;1338;48.176;11.792;2023-05-02T08:22:07;11.30;1.00
2657;DHT22;1338;48.176;11.792;2023-05-02T08:24:35;11.40;1.00
2657;DHT22;1338;48.176;11.792;2023-05-02T08:27:06;11.50;1.00
2657;DHT22;1338;48.176;11.792;2023-05-02T08:29:34;11.70;1.00
2657;DHT22;1338;48.176;11.792;2023-05-02T08:32:02;11.80;1.00
2657;DHT22;1338;48.176;11.792;2023-05-02T08:34:30;11.80;1.00
2657;DHT22;1338;48.176;11.792;2023-05-02T08:36:59;11.50;1.00
2657;DHT22;1338;48.176;11.792;2023-05-02T08:39:31;11.60;1.00
2657;DHT22;1338;48.176;11.792;2023-05-02T08:42:00;11.90;1.00
2657;DHT22;1338;48.176;11.792;2023-05-02T08:44:31;11.90;1.00
2657;DHT22;1338;48.176;11.792;2023-05-02T08:46:59;12.20;1.00
2657;DHT22;1338;48.176;11.792;2023-05-02T08:49:31;12.40;1.00
2657;DHT22;1338;48.176;11.792;2023-05-02T08:51:59;12.10;1.00
2657;DHT22;1338;48.176;11.792;2023-05-02T08:54:28;12.20;1.00
2657;DHT22;1338;48.176;11.792;2023-05-02T08:56:57;12.50;1.00
2657;DHT22;1338;48.176;11.792;2023-05-02T08:59:30;12.40;1.00
2657;DHT22;1338;48.176;11.792;2023-05-02T09:02:03;12.40;1.00
2657;DHT22;1338;48.176;11.792;2023-05-02T09:04:33;12.70;1.00
2657;DHT22;1338;48.176;11.792;2023-05-02T09:07:04;12.60;1.00
2657;DHT22;1338;48.176;11.792;2023-05-02T09:09:33;12.80;1.00
2657;DHT22;1338;48.176;11.792;2023-05-02T09:12:01;12.40;1.00
2657;DHT22;1338;48.176;11.792;2023-05-02T09:14:31;12.70;1.00
2657;DHT22;1338;48.176;11.792;2023-05-02T09:17:00;12.60;1.00
2657;DHT22;1338;48.176;11.792;2023-05-02T09:19:29;12.60;1.00
2657;DHT22;1338;48.176;11.792;2023-05-02T09:22:00;12.80;99.90
2657;DHT22;1338;48.176;11.792;2023-05-02T09:24:29;13.00;99.90
2657;DHT22;1338;48.176;11.792;2023-05-02T09:26:59;12.90;99.90
2657;DHT22;1338;48.176;11.792;2023-05-02T09:29:31;12.80;99.90
2657;DHT22;1338;48.176;11.792;2023-05-02T09:32:02;12.80;99.90
2657;DHT22;1338;48.176;11.792;2023-05-02T09:34:32;12.50;99.90
2657;DHT22;1338;48.176;11.792;2023-05-02T09:37:03;12.70;99.90
2657;DHT22;1338;48.176;11.792;2023-05-02T09:39:32;12.70;99.90
2657;DHT22;1338;48.176;11.792;2023-05-02T09:42:00;12.80;99.90
2657;DHT22;1338;48.176;11.792;2023-05-02T09:44:37;12.70;99.90
2657;DHT22;1338;48.176;11.792;2023-05-02T09:47:06;12.70;99.90
2657;DHT22;1338;48.176;11.792;2023-05-02T09:49:39;12.70;99.90
2657;DHT22;1338;48.176;11.792;2023-05-02T09:52:11;12.50;99.90
2657;DHT22;1338;48.176;11.792;2023-05-02T09:54:40;12.60;1.00
2657;DHT22;1338;48.176;11.792;2023-05-02T09:57:08;12.60;99.90
2657;DHT22;1338;48.176;11.792;2023-05-02T09:59:39;12.70;1.00
2657;DHT22;1338;48.176;11.792;2023-05-02T10:02:08;13.10;99.90
2657;DHT22;1338;48.176;11.792;2023-05-02T10:04:38;12.90;99.90
2657;DHT22;1338;48.176;11.792;2023-05-02T10:07:08;12.90;99.90
2657;DHT22;1338;48.176;11.792;2023-05-02T10:09:40;13.30;99.90
2657;DHT22;1338;48.176;11.792;2023-05-02T10:12:13;13.40;99.90
2657;DHT22;1338;48.176;11.792;2023-05-02T10:14:48;13.10;99.90
2657;DHT22;1338;48.176;11.792;2023-05-02T10:17:21;13.20;99.90
2657;DHT22;1338;48.176;11.792;2023-05-02T10:19:58;13.30;99.90
2657;DHT22;1338;48.176;11.792;2023-05-02T10:22:27;13.30;99.90
2657;DHT22;1338;48.176;11.792;2023-05-02T10:24:57;13.10;99.90
2657;DHT22;1338;48.176;11.792;2023-05-02T10:27:27;13.60;99.90
2657;DHT22;1338;48.176;11.792;2023-05-02T10:29:58;13.40;99.90
2657;DHT22;1338;48.176;11.792;2023-05-02T10:32:27;13.40;99.90
2657;DHT22;1338;48.176;11.792;2023-05-02T10:34:56;13.50;99.90
2657;DHT22;1338;48.176;11.792;2023-05-02T10:37:25;13.70;99.90
2657;DHT22;1338;48.176;11.792;2023-05-02T10:39:54;13.60;99.90
2657;DHT22;1338;48.176;11.792;2023-05-02T10:42:22;13.90;99.90
2657;DHT22;1338;48.176;11.792;2023-05-02T10:44:51;13.90;99.90
2657;DHT22;1338;48.176;11.792;2023-05-02T10:47:22;13.70;99.90
2657;DHT22;1338;48.176;11.792;2023-05-02T10:49:54;13.30;99.90
2657;DHT22;1338;48.176;11.792;2023-05-02T10:52:26;13.00;99.90
2657;DHT22;1338;48.176;11.792;2023-05-02T10:55:13;12.80;99.90
2657;DHT22;1338;48.176;11.792;2023-05-02T10:58:19;12.80;1.00
2657;DHT22;1338;48.176;11.792;2023-05-02T11:00:47;12.60;1.00
2657;DHT22;1338;48.176;11.792;2023-05-02T11:06:19;12.50;1.00
2657;DHT22;1338;48.176;11.792;2023-05-02T11:08:47;12.60;1.00
2657;DHT22;1338;48.176;11.792;2023-05-02T11:11:37;12.90;1.00
2657;DHT22;1338;48.176;11.792;2023-05-02T11:14:06;13.10;1.00
2657;DHT22;1338;48.176;11.792;2023-05-02T11:17:05;13.00;1.00
2657;DHT22;1338;48.176;11.792;2023-05-02T11:22:36;13.50;1.00
2657;DHT22;1338;48.176;11.792;2023-05-02T11:25:04;13.70;1.00
2657;DHT22;1338;48.176;11.792;2023-05-02T11:27:36;13.50;1.00
2657;DHT22;1338;48.176;11.792;2023-05-02T11:30:05;13.30;1.00
2657;DHT22;1338;48.176;11.792;2023-05-02T11:35:43;13.10;1.00
2657;DHT22;1338;48.176;11.792;2023-05-02T11:38:15;13.20;1.00
2657;DHT22;1338;48.176;11.792;2023-05-02T11:40:57;13.40;99.90
2657;DHT22;1338;48.176;11.792;2023-05-02T11:43:27;13.60;99.90
2657;DHT22;1338;48.176;11.792;2023-05-02T11:45:58;13.50;99.90
2657;DHT22;1338;48.176;11.792;2023-05-02T11:48:29;13.30;99.90
2657;DHT22;1338;48.176;11.792;2023-05-02T11:50:59;13.30;99.90
2657;DHT22;1338;48.176;11.792;2023-05-02T11:53:32;13.30;99.90
2657;DHT22;1338;48.176;11.792;2023-05-02T11:56:02;13.10;99.90
2657;DHT22;1338;48.176;11.792;2023-05-02T11:58:31;12.90;99.90
2657;DHT22;1338;48.176;11.792;2023-05-02T12:01:11;12.70;99.90
2657;DHT22;1338;48.176;11.792;2023-05-02T12:03:40;12.60;99.90
2657;DHT22;1338;48.176;11.792;2023-05-02T12:06:10;12.60;99.90
2657;DHT22;1338;48.176;11.792;2023-05-02T12:08:42;12.70;99.90
2657;DHT22;1338;48.176;11.792;2023-05-02T12:11:12;12.80;99.90
2657;DHT22;1338;48.176;11.792;2023-05-02T12:13:45;12.70;99.90
2657;DHT22;1338;48.176;11.792;2023-05-02T12:16:14;12.90;99.90
2657;DHT22;1338;48.176;11.792;2023-05-02T12:18:43;12.90;1.00
2657;DHT22;1338;48.176;11.792;2023-05-02T12:21:12;12.80;1.00
2657;DHT22;1338;48.176;11.792;2023-05-02T12:23:42;12.50;99.90
2657;DHT22;1338;48.176;11.792;2023-05-02T12:26:17;12.40;1.00
2657;DHT22;1338;48.176;11.792;2023-05-02T12:28:49;12.20;1.00
2657;DHT22;1338;48.176;11.792;2023-05-02T12:31:18;12.20;1.00
2657;DHT22;1338;48.176;11.792;2023-05-02T12:33:47;12.10;99.90
2657;DHT22;1338;48.176;11.792;2023-05-02T12:36:16;12.00;1.00
2657;DHT22;1338;48.176;11.792;2023-05-02T12:38:50;11.80;1.00
2657;DHT22;1338;48.176;11.792;2023-05-02T12:41:30;11.80;1.00
2657;DHT22;1338;48.176;11.792;2023-05-02T12:43:59;11.70;1.00
2657;DHT22;1338;48.176;11.792;2023-05-02T12:46:27;11.60;1.00
2657;DHT22;1338;48.176;11.792;2023-05-02T12:49:02;11.50;1.00
2657;DHT22;1338;48.176;11.792;2023-05-02T12:51:31;11.30;1.00
2657;DHT22;1338;48.176;11.792;2023-05-02T12:54:02;11.60;1.00
2657;DHT22;1338;48.176;11.792;2023-05-02T12:56:37;11.50;1.00
2657;DHT22;1338;48.176;11.792;2023-05-02T12:59:05;11.60;1.00
2657;DHT22;1338;48.176;11.792;2023-05-02T13:01:34;12.20;1.00
2657;DHT22;1338;48.176;11.792;2023-05-02T13:04:02;12.50;1.00
2657;DHT22;1338;48.176;11.792;2023-05-02T13:06:31;12.40;1.00
2657;DHT22;1338;48.176;11.792;2023-05-02T13:09:05;12.70;1.00
2657;DHT22;1338;48.176;11.792;2023-05-02T13:11:33;13.10;1.00
2657;DHT22;1338;48.176;11.792;2023-05-02T13:14:01;13.30;99.90
2657;DHT22;1338;48.176;11.792;2023-05-02T13:16:31;13.20;99.90
2657;DHT22;1338;48.176;11.792;2023-05-02T13:19:03;13.60;99.90
2657;DHT22;1338;48.176;11.792;2023-05-02T13:21:31;13.80;99.90
2657;DHT22;1338;48.176;11.792;2023-05-02T13:23:59;13.90;99.90
2657;DHT22;1338;48.176;11.792;2023-05-02T13:26:31;14.00;99.90
2657;DHT22;1338;48.176;11.792;2023-05-02T13:28:59;13.90;99.90
2657;DHT22;1338;48.176;11.792;2023-05-02T13:31:27;14.00;99.90
2657;DHT22;1338;48.176;11.792;2023-05-02T13:33:55;14.00;99.90
2657;DHT22;1338;48.176;11.792;2023-05-02T13:36:23;14.00;99.90
2657;DHT22;1338;48.176;11.792;2023-05-02T13:38:51;14.10;99.90
2657;DHT22;1338;48.176;11.792;2023-05-02T13:41:20;14.20;99.90
2657;DHT22;1338;48.176;11.792;2023-05-02T13:43:52;14.20;99.90
2657;DHT22;1338;48.176;11.792;2023-05-02T13:46:21;14.30;99.90
2657;DHT22;1338;48.176;11.792;2023-05-02T13:48:49;14.40;99.90
2657;DHT22;1338;48.176;11.792;2023-05-02T13:51:17;14.30;99.90
2657;DHT22;1338;48.176;11.792;2023-05-02T13:53:45;14.30;99.90
2657;DHT22;1338;48.176;11.792;2023-05-02T13:56:13;13.80;99.90
2657;DHT22;1338;48.176;11.792;2023-05-02T13:58:42;13.80;99.90
2657;DHT22;1338;48.176;11.792;2023-05-02T14:01:11;14.00;99.90
2657;DHT22;1338;48.176;11.792;2023-05-02T14:03:39;13.70;99.90
2657;DHT22;1338;48.176;11.792;2023-05-02T14:06:07;12.90;99.90
2657;DHT22;1338;48.176;11.792;2023-05-02T14:08:35;12.60;99.90
2657;DHT22;1338;48.176;11.792;2023-05-02T14:11:04;12.50;99.90
2657;DHT22;1338;48.176;11.792;2023-05-02T14:13:33;13.20;99.90
2657;DHT22;1338;48.176;11.792;2023-05-02T14:16:01;12.40;99.90
2657;DHT22;1338;48.176;11.792;2023-05-02T14:18:31;12.00;99.90
2657;DHT22;1338;48.176;11.792;2023-05-02T14:20:59;11.70;99.90
2657;DHT22;1338;48.176;11.792;2023-05-02T14:23:27;11.70;99.90
2657;DHT22;1338;48.176;11.792;2023-05-02T14:25:55;11.60;99.90
2657;DHT22;1338;48.176;11.792;2023-05-02T14:28:24;11.90;99.90
2657;DHT22;1338;48.176;11.792;2023-05-02T14:30:53;11.80;99.90
2657;DHT22;1338;48.176;11.792;2023-05-02T14:33:21;12.50;99.90
2657;DHT22;1338;48.176;11.792;2023-05-02T14:35:50;12.50;99.90
2657;DHT22;1338;48.176;11.792;2023-05-02T14:38:18;12.10;99.90
2657;DHT22;1338;48.176;11.792;2023-05-02T14:40:47;12.20;99.90
2657;DHT22;1338;48.176;11.792;2023-05-02T14:43:15;11.70;99.90
2657;DHT22;1338;48.176;11.792;2023-05-02T14:45:43;10.90;99.90
2657;DHT22;1338;48.176;11.792;2023-05-02T14:48:11;10.70;1.00
2657;DHT22;1338;48.176;11.792;2023-05-02T14:50:40;10.50;1.00
2657;DHT22;1338;48.176;11.792;2023-05-02T14:53:09;10.60;1.00
2657;DHT22;1338;48.176;11.792;2023-05-02T14:55:38;10.70;1.00
2657;DHT22;1338;48.176;11.792;2023-05-02T14:58:07;10.80;1.00
2657;DHT22;1338;48.176;11.792;2023-05-02T15:00:36;11.00;1.00
2657;DHT22;1338;48.176;11.792;2023-05-02T15:03:05;11.60;1.00
2657;DHT22;1338;48.176;11.792;2023-05-02T15:05:35;11.20;1.00
2657;DHT22;1338;48.176;11.792;2023-05-02T15:08:04;10.90;1.00
2657;DHT22;1338;48.176;11.792;2023-05-02T15:10:36;10.80;1.00
2657;DHT22;1338;48.176;11.792;2023-05-02T15:13:05;11.20;1.00
2657;DHT22;1338;48.176;11.792;2023-05-02T15:15:34;11.60;1.00
2657;DHT22;1338;48.176;11.792;2023-05-02T15:18:03;11.20;1.00
2657;DHT22;1338;48.176;11.792;2023-05-02T15:20:31;11.10;1.00
2657;DHT22;1338;48.176;11.792;2023-05-02T15:22:59;11.50;1.00
2657;DHT22;1338;48.176;11.792;2023-05-02T15:25:30;11.50;1.00
2657;DHT22;1338;48.176;11.792;2023-05-02T15:28:00;11.60;1.00
2657;DHT22;1338;48.176;11.792;2023-05-02T15:30:30;11.80;1.00
2657;DHT22;1338;48.176;11.792;2023-05-02T15:32:58;11.90;1.00
2657;DHT22;1338;48.176;11.792;2023-05-02T15:35:26;12.00;1.00
2657;DHT22;1338;48.176;11.792;2023-05-02T15:37:54;12.20;1.00
2657;DHT22;1338;48.176;11.792;2023-05-02T15:40:22;12.60;1.00
2657;DHT22;1338;48.176;11.792;2023-05-02T15:42:53;13.30;1.00
2657;DHT22;1338;48.176;11.792;2023-05-02T15:45:22;13.90;1.00
2657;DHT22;1338;48.176;11.792;2023-05-02T15:47:51;13.50;99.90
2657;DHT22;1338;48.176;11.792;2023-05-02T15:50:19;13.80;99.90
2657;DHT22;1338;48.176;11.792;2023-05-02T15:52:47;14.60;99.90
2657;DHT22;1338;48.176;11.792;2023-05-02T15:55:15;15.40;99.90
2657;DHT22;1338;48.176;11.792;2023-05-02T15:57:43;15.70;99.90
2657;DHT22;1338;48.176;11.792;2023-05-02T16:00:13;15.60;99.90
2657;DHT22;1338;48.176;11.792;2023-05-02T16:02:44;15.40;99.90
2657;DHT22;1338;48.176;11.792;2023-05-02T16:05:12;15.80;99.90
2657;DHT22;1338;48.176;11.792;2023-05-02T16:07:40;15.20;99.90
2657;DHT22;1338;48.176;11.792;2023-05-02T16:10:09;14.70;99.90
2657;DHT22;1338;48.176;11.792;2023-05-02T16:12:37;14.30;99.90
2657;DHT22;1338;48.176;11.792;2023-05-02T16:15:06;14.20;99.90
2657;DHT22;1338;48.176;11.792;2023-05-02T16:17:35;14.10;99.90
2657;DHT22;1338;48.176;11.792;2023-05-02T16:20:06;13.90;99.90
2657;DHT22;1338;48.176;11.792;2023-05-02T16:22:35;13.50;99.90
2657;DHT22;1338;48.176;11.792;2023-05-02T16:25:04;13.20;99.90
2657;DHT22;1338;48.176;11.792;2023-05-02T16:27:33;13.10;99.90
2657;DHT22;1338;48.176;11.792;2023-05-02T16:30:01;12.90;99.90